Time;durP1;ratioP1;P1;durP2;ratioP2;P2;SDS_P1;SDS_P2;PMS_P1;PMS_P2;Temp;Humidity;BMP_temperature;BMP_pressure;BME280_temperature;BME280_humidity;BME280_pressure;Samples;Min_cycle;Max_cycle;Signal;HPM_P1;HPM_P2
2021/07/11 02:45:15;;;;;;;4.00;2.33;;;20.00;80.50;;;;;;5729016;24;20023;31
2021/07/11 02:47:45;;;;;;;;;;;20.10;80.10;;;;;;4732468;30;20111;-78
2021/07/11 02:50:16;;;;;;;2.88;2.08;;;20.20;80.00;;;;;;4772396;30;19944;-78
2021/07/11 02:52:46;;;;;;;9.82;2.75;;;20.20;79.70;;;;;;4770090;30;20032;-78
2021/07/11 02:55:24;;;;;;;2.75;2.05;;;20.30;79.70;;;;;;4752358;30;20036;-77
2021/07/11 02:57:59;;;;;;;4.18;2.45;;;20.30;79.60;;;;;;4778215;30;20036;-77
2021/07/11 03:00:25;;;;;;;9.35;2.60;;;20.30;79.50;;;;;;4744857;30;20047;-77
2021/07/11 03:02:56;;;;;;;6.18;2.10;;;20.40;79.50;;;;;;4763164;30;20016;-77
2021/07/11 03:05:32;;;;;;;5.13;2.53;;;20.40;79.20;;;;;;4781130;30;20031;-78
2021/07/11 03:08:00;;;;;;;6.03;2.60;;;20.50;79.10;;;;;;4775662;30;20270;-77
2021/07/11 03:10:28;;;;;;;3.63;2.40;;;20.50;78.90;;;;;;4747559;30;20111;-77
2021/07/11 03:13:01;;;;;;;6.10;2.50;;;20.50;78.70;;;;;;4747196;30;20039;-77
2021/07/11 03:15:28;;;;;;;3.25;2.28;;;20.60;78.60;;;;;;4740144;30;20245;-77
2021/07/11 03:17:55;;;;;;;15.40;3.08;;;20.70;78.40;;;;;;4762651;30;20051;-77
2021/07/11 03:20:23;;;;;;;3.63;2.22;;;20.70;78.10;;;;;;4745937;30;20342;-77
2021/07/11 03:22:53;;;;;;;5.57;2.50;;;20.70;77.90;;;;;;4770098;30;20035;-77
2021/07/11 03:25:24;;;;;;;4.32;2.15;;;20.80;78.30;;;;;;4731501;30;20041;-78
2021/07/11 03:27:52;;;;;;;4.60;2.50;;;20.80;78.00;;;;;;4736998;30;20283;-78
2021/07/11 03:30:20;;;;;;;2.95;2.03;;;20.90;77.90;;;;;;4775196;30;20188;-77
2021/07/11 03:32:51;;;;;;;5.90;2.25;;;20.90;77.60;;;;;;4770066;30;20078;-77
2021/07/11 03:35:20;;;;;;;3.95;2.28;;;21.00;77.10;;;;;;4755105;30;20031;-77
2021/07/11 03:37:49;;;;;;;2.90;1.98;;;21.10;76.90;;;;;;4729321;30;20043;-78
2021/07/11 03:40:22;;;;;;;3.95;2.30;;;21.10;76.80;;;;;;4740662;30;20046;-77
2021/07/11 03:42:52;;;;;;;5.88;2.28;;;21.20;76.90;;;;;;4776813;30;20027;-78
2021/07/11 03:45:20;;;;;;;3.75;2.13;;;21.20;76.50;;;;;;4769042;30;20036;-77
2021/07/11 03:47:51;;;;;;;7.68;2.22;;;21.30;76.00;;;;;;4766120;30;20138;-77
2021/07/11 03:50:21;;;;;;;3.63;2.30;;;21.30;75.90;;;;;;4753291;30;20040;-76
2021/07/11 03:52:57;;;;;;;3.38;2.55;;;21.40;75.90;;;;;;4744066;30;20393;-77
2021/07/11 03:55:24;;;;;;;4.05;2.38;;;21.50;75.40;;;;;;4776214;30;20090;-77
2021/07/11 03:57:51;;;;;;;4.10;2.28;;;21.50;75.70;;;;;;4763025;30;20043;-77
2021/07/11 04:00:19;;;;;;;4.47;2.47;;;21.60;75.40;;;;;;4748663;30;20407;-77
2021/07/11 04:02:49;;;;;;;4.35;2.45;;;21.60;75.10;;;;;;4756320;30;20032;-77
2021/07/11 04:05:21;;;;;;;4.10;2.13;;;21.70;75.20;;;;;;4745064;30;20227;-78
2021/07/11 04:07:51;;;;;;;7.45;2.30;;;21.70;74.50;;;;;;4736507;30;20040;-77
2021/07/11 04:10:20;;;;;;;3.33;2.50;;;21.70;74.40;;;;;;4750569;30;20039;-78
2021/07/11 04:12:46;;;;;;;9.93;2.28;;;21.60;74.70;;;;;;4759449;30;20036;-78
2021/07/11 04:15:15;;;;;;;2.75;1.92;;;21.60;75.00;;;;;;4781817;30;20046;-78
2021/07/11 04:17:50;;;;;;;4.18;2.42;;;21.60;75.00;;;;;;4753530;30;20055;-78
2021/07/11 04:20:17;;;;;;;8.60;1.95;;;21.60;75.20;;;;;;4781627;30;20036;-77
2021/07/11 04:22:45;;;;;;;3.83;1.97;;;21.60;75.20;;;;;;4769657;30;20034;-77
2021/07/11 04:25:12;;;;;;;9.00;2.55;;;21.70;75.20;;;;;;4772345;30;20578;-77
2021/07/11 04:27:39;;;;;;;8.27;2.67;;;21.70;75.20;;;;;;4757768;30;20216;-77
2021/07/11 04:30:07;;;;;;;4.15;2.10;;;21.80;75.00;;;;;;4756635;30;20102;-77
2021/07/11 04:32:36;;;;;;;3.97;2.13;;;21.90;74.80;;;;;;4753772;30;20047;-77
2021/07/11 04:35:06;;;;;;;7.15;1.92;;;21.90;74.60;;;;;;4750634;30;20043;-78
2021/07/11 04:37:33;;;;;;;3.10;2.10;;;22.10;74.20;;;;;;4755865;30;20036;-77
2021/07/11 04:39:58;;;;;;;4.05;2.22;;;22.10;74.00;;;;;;4747650;30;20067;-77
2021/07/11 04:42:24;;;;;;;3.03;2.28;;;22.20;73.40;;;;;;4750097;30;20402;-77
2021/07/11 04:44:51;;;;;;;6.65;2.08;;;22.20;73.30;;;;;;4751026;30;20032;-78
2021/07/11 04:47:17;;;;;;;4.55;2.40;;;22.30;73.00;;;;;;4766775;30;20087;-78
2021/07/11 04:49:42;;;;;;;4.47;2.03;;;22.40;73.10;;;;;;4779785;30;20074;-78
2021/07/11 04:52:08;;;;;;;5.32;2.80;;;22.60;72.40;;;;;;4780838;30;20032;-77
2021/07/11 04:54:35;;;;;;;3.33;2.10;;;22.60;71.90;;;;;;4778442;30;20035;-77
2021/07/11 04:57:02;;;;;;;3.65;2.33;;;22.70;71.20;;;;;;4769173;30;20023;-77
2021/07/11 04:59:29;;;;;;;5.85;2.45;;;22.80;71.10;;;;;;4769847;30;20238;-77
2021/07/11 05:01:54;;;;;;;3.58;2.00;;;22.90;70.80;;;;;;4774375;30;20055;-78
2021/07/11 05:04:20;;;;;;;2.90;2.13;;;23.10;70.70;;;;;;4755534;30;20048;-77
2021/07/11 05:06:46;;;;;;;4.45;2.20;;;23.20;70.20;;;;;;4766753;30;20035;-76
2021/07/11 05:09:11;;;;;;;8.23;2.08;;;23.40;69.50;;;;;;4742108;30;20096;-77
2021/07/11 05:11:37;;;;;;;14.07;2.53;;;23.60;69.40;;;;;;4770687;30;20232;-76
2021/07/11 05:14:04;;;;;;;19.10;3.45;;;23.70;68.80;;;;;;4744364;30;20040;-77
2021/07/11 05:16:31;;;;;;;5.63;1.95;;;23.70;67.60;;;;;;4745520;30;20103;-76
2021/07/11 05:18:57;;;;;;;5.38;2.20;;;23.70;67.80;;;;;;4755341;30;20070;-76
2021/07/11 05:21:23;;;;;;;2.65;2.20;;;23.90;68.20;;;;;;4747518;30;20320;-76
2021/07/11 05:23:48;;;;;;;7.50;2.75;;;24.10;67.20;;;;;;4758031;30;20216;-76
2021/07/11 05:26:14;;;;;;;6.20;2.35;;;24.20;66.90;;;;;;4748606;30;20027;-76
2021/07/11 05:28:40;;;;;;;3.88;2.28;;;24.40;66.40;;;;;;4756310;30;20169;-76
2021/07/11 05:31:07;;;;;;;8.97;2.80;;;24.80;65.10;;;;;;4761612;30;20032;-76
2021/07/11 05:33:33;;;;;;;;;;;25.50;63.90;;;;;;4767357;30;20113;-76
2021/07/11 05:36:00;;;;;;;5.47;2.27;;;25.70;62.50;;;;;;4759610;30;19922;-77
2021/07/11 05:38:26;;;;;;;5.22;2.22;;;25.40;62.30;;;;;;4750769;30;20297;-76
2021/07/11 05:40:53;;;;;;;3.03;1.80;;;25.10;63.80;;;;;;4751146;30;20336;-76
2021/07/11 05:43:19;;;;;;;;;;;24.90;64.50;;;;;;4761377;30;20296;-76
2021/07/11 05:45:44;;;;;;;7.60;2.50;;;24.80;64.10;;;;;;4751078;30;20209;-76
2021/07/11 05:48:10;;;;;;;8.40;2.55;;;24.80;65.50;;;;;;4769291;30;20039;-75
2021/07/11 05:50:37;;;;;;;2.97;2.00;;;25.00;64.70;;;;;;4765742;30;20036;-75
2021/07/11 05:53:02;;;;;;;3.83;2.10;;;25.40;62.80;;;;;;4762270;30;20046;-75
2021/07/11 05:55:28;;;;;;;2.75;1.85;;;25.60;62.00;;;;;;4768445;30;20051;-76
2021/07/11 05:57:54;;;;;;;2.63;1.90;;;25.60;62.60;;;;;;4767402;30;20342;-76
2021/07/11 06:00:20;;;;;;;2.72;1.92;;;25.50;62.40;;;;;;4772586;30;20042;-76
2021/07/11 06:02:46;;;;;;;3.83;1.80;;;25.20;63.00;;;;;;4758032;30;20103;-76
2021/07/11 06:05:12;;;;;;;4.53;2.55;;;24.90;64.30;;;;;;4752916;30;20216;-76
2021/07/11 06:07:38;;;;;;;2.97;2.08;;;24.80;64.80;;;;;;4772740;30;20058;-76
2021/07/11 06:10:05;;;;;;;3.53;1.95;;;24.80;64.80;;;;;;4752795;30;20036;-77
2021/07/11 06:12:32;;;;;;;4.78;2.40;;;24.70;65.30;;;;;;4752382;30;20032;-76
2021/07/11 06:14:58;;;;;;;3.35;1.95;;;24.50;64.80;;;;;;4745978;30;20082;-76
2021/07/11 06:17:23;;;;;;;4.20;2.13;;;24.40;65.00;;;;;;4772112;30;20032;-76
2021/07/11 06:19:49;;;;;;;4.97;2.22;;;24.30;65.50;;;;;;4753540;30;20040;-75
2021/07/11 06:22:15;;;;;;;3.75;1.90;;;24.40;65.30;;;;;;4746132;30;20193;-76
2021/07/11 06:24:41;;;;;;;6.03;1.75;;;24.40;65.60;;;;;;4760609;30;20073;-76
2021/07/11 06:27:07;;;;;;;4.18;1.85;;;24.60;65.90;;;;;;4759044;30;20032;-75
2021/07/11 06:29:33;;;;;;;3.40;2.05;;;24.90;65.40;;;;;;4757405;30;20036;-75
2021/07/11 06:31:58;;;;;;;5.53;2.30;;;25.10;63.90;;;;;;4737315;30;20261;-76
2021/07/11 06:34:24;;;;;;;5.18;2.40;;;25.00;64.30;;;;;;4760692;30;20024;-75
2021/07/11 06:36:50;;;;;;;5.18;1.88;;;24.90;64.30;;;;;;4738635;30;20236;-76
2021/07/11 06:39:15;;;;;;;4.28;1.40;;;25.00;64.20;;;;;;4771583;30;20474;-75
2021/07/11 06:41:41;;;;;;;6.90;1.60;;;25.10;62.80;;;;;;4745609;30;20038;-77
2021/07/11 06:44:07;;;;;;;7.45;2.50;;;25.00;62.30;;;;;;4761831;30;20040;-75
2021/07/11 06:46:33;;;;;;;4.75;2.60;;;24.80;62.70;;;;;;4736424;30;20124;-75
2021/07/11 06:48:58;;;;;;;2.28;1.60;;;24.80;63.10;;;;;;4742523;30;20032;-76
2021/07/11 06:51:24;;;;;;;1.90;1.45;;;24.70;63.00;;;;;;4744938;30;20032;-75
2021/07/11 06:53:50;;;;;;;3.40;1.80;;;24.80;64.00;;;;;;4743692;30;20081;-77
2021/07/11 06:56:15;;;;;;;1.85;1.45;;;24.70;63.30;;;;;;4747721;30;20208;-75
2021/07/11 06:58:41;;;;;;;4.68;1.40;;;24.70;62.70;;;;;;4742395;30;20025;-76
2021/07/11 07:01:07;;;;;;;4.82;1.80;;;24.70;62.80;;;;;;4744008;30;20036;-75
2021/07/11 07:03:33;;;;;;;4.18;1.80;;;24.70;63.30;;;;;;4752960;30;20028;-76
2021/07/11 07:05:58;;;;;;;6.05;1.65;;;24.60;63.30;;;;;;4741846;30;20056;-76
2021/07/11 07:08:25;;;;;;;3.08;1.67;;;24.60;63.00;;;;;;4741362;30;20029;-77
2021/07/11 07:10:52;;;;;;;;;;;24.40;63.00;;;;;;4748729;30;20086;-76
2021/07/11 07:13:20;;;;;;;3.85;1.90;;;24.40;63.60;;;;;;4760423;30;19917;-76
2021/07/11 07:15:45;;;;;;;3.03;2.17;;;24.40;63.90;;;;;;4746514;30;20036;-76
2021/07/11 07:18:11;;;;;;;4.60;1.65;;;24.20;65.10;;;;;;4752898;30;20048;-78
2021/07/11 07:20:37;;;;;;;2.35;2.03;;;24.20;65.30;;;;;;4737737;30;20117;-76
2021/07/11 07:23:03;;;;;;;2.03;1.65;;;24.10;65.10;;;;;;4758713;30;20080;-76
2021/07/11 07:25:28;;;;;;;2.80;1.88;;;24.10;65.40;;;;;;4754001;30;20029;-78
2021/07/11 07:27:54;;;;;;;5.40;2.22;;;24.00;65.50;;;;;;4754060;30;20343;-76
2021/07/11 07:30:20;;;;;;;5.03;2.08;;;23.80;65.90;;;;;;4734072;30;20052;-76
2021/07/11 07:32:48;;;;;;;2.28;2.03;;;23.70;66.40;;;;;;4752593;30;20090;-77
2021/07/11 07:35:18;;;;;;;5.65;1.92;;;23.70;67.00;;;;;;4747426;30;20052;-79
2021/07/11 07:37:46;;;;;;;2.25;1.77;;;23.60;68.00;;;;;;4743727;30;20082;-78
2021/07/11 07:40:13;;;;;;;3.47;2.20;;;23.50;68.40;;;;;;4737492;30;20065;-78
2021/07/11 07:42:39;;;;;;;2.72;2.28;;;23.60;68.70;;;;;;4734538;30;20067;-78
2021/07/11 07:45:06;;;;;;;5.30;2.55;;;23.50;69.90;;;;;;4752786;30;20037;-78
2021/07/11 07:47:31;;;;;;;5.00;2.38;;;23.40;71.10;;;;;;4766549;30;20341;-78
2021/07/11 07:49:58;;;;;;;4.90;2.50;;;23.30;72.00;;;;;;4738565;30;20044;-77
2021/07/11 07:52:24;;;;;;;3.83;2.15;;;23.20;73.40;;;;;;4734384;30;20239;-78
2021/07/11 07:54:50;;;;;;;6.68;2.65;;;23.20;75.10;;;;;;4755869;30;20115;-77
2021/07/11 07:57:15;;;;;;;4.15;2.40;;;23.30;75.50;;;;;;4747007;30;20040;-77
2021/07/11 07:59:42;;;;;;;2.90;2.50;;;23.60;75.20;;;;;;4759764;30;20116;-77
2021/07/11 08:02:08;;;;;;;3.50;2.40;;;23.90;74.90;;;;;;4748619;30;20037;-76
2021/07/11 08:04:34;;;;;;;6.07;2.22;;;24.10;74.70;;;;;;4740727;30;20074;-77
2021/07/11 08:06:59;;;;;;;3.08;2.30;;;24.30;74.30;;;;;;4734548;30;20032;-76
2021/07/11 08:09:25;;;;;;;4.57;4.18;;;24.60;73.80;;;;;;4754731;30;20185;-77
2021/07/11 08:11:51;;;;;;;6.15;2.47;;;24.80;73.60;;;;;;4731035;30;20041;-77
2021/07/11 08:14:17;;;;;;;2.90;2.17;;;24.80;72.30;;;;;;4752643;30;20036;-77
2021/07/11 08:16:43;;;;;;;3.53;2.60;;;24.80;71.60;;;;;;4758270;30;20028;-78
2021/07/11 08:19:09;;;;;;;5.88;2.63;;;24.70;70.50;;;;;;4759922;30;20108;-78
2021/07/11 08:21:35;;;;;;;4.77;2.70;;;24.70;71.60;;;;;;4755533;30;20029;-78
2021/07/11 08:24:02;;;;;;;5.45;2.85;;;24.60;71.60;;;;;;4749711;30;20040;-79
2021/07/11 08:26:27;;;;;;;4.93;2.37;;;24.70;70.80;;;;;;4754954;30;20139;-79
2021/07/11 08:28:53;;;;;;;5.25;2.70;;;24.80;70.60;;;;;;4762187;30;20159;-78
2021/07/11 08:31:19;;;;;;;4.65;2.75;;;24.80;70.80;;;;;;4757474;30;20033;-77
2021/07/11 08:33:45;;;;;;;9.50;2.80;;;25.00;70.50;;;;;;4752052;30;20043;-78
2021/07/11 08:36:11;;;;;;;4.90;2.40;;;25.00;70.00;;;;;;4765140;30;20083;-76
2021/07/11 08:38:37;;;;;;;7.40;4.47;;;25.10;69.70;;;;;;4756950;30;20040;-77
2021/07/11 08:41:03;;;;;;;3.22;2.42;;;25.20;69.40;;;;;;4741200;30;20111;-77
2021/07/11 08:43:30;;;;;;;4.18;2.63;;;25.20;69.40;;;;;;4759235;30;20304;-76
2021/07/11 08:45:56;;;;;;;4.07;2.80;;;25.20;69.40;;;;;;4748810;30;20072;-76
2021/07/11 08:48:22;;;;;;;2.90;2.17;;;25.30;69.00;;;;;;4748798;30;20028;-76
2021/07/11 08:50:47;;;;;;;2.70;2.17;;;25.20;67.80;;;;;;4751523;30;20036;-76
2021/07/11 08:53:15;;;;;;;3.50;2.13;;;25.10;68.20;;;;;;4761570;30;20032;-76
2021/07/11 08:55:43;;;;;;;4.40;2.53;;;25.10;68.10;;;;;;4750990;30;20070;-76
2021/07/11 08:58:09;;;;;;;4.90;2.75;;;25.00;69.30;;;;;;4751909;30;20074;-76
2021/07/11 09:00:38;;;;;;;3.88;2.30;;;25.00;69.00;;;;;;4753604;30;20100;-76
2021/07/11 09:03:06;;;;;;;19.38;2.85;;;25.10;68.70;;;;;;4749697;30;20036;-77
2021/07/11 09:05:36;;;;;;;4.60;2.63;;;25.10;68.90;;;;;;4745280;30;20063;-77
2021/07/11 09:08:19;;;;;;;6.47;3.78;;;25.20;68.50;;;;;;4751193;30;20063;-76
2021/07/11 09:10:57;;;;;;;6.47;4.55;;;25.20;68.50;;;;;;4742229;30;20060;-77
2021/07/11 09:13:26;;;;;;;5.35;3.33;;;25.20;68.80;;;;;;4724424;30;20083;-76
2021/07/11 09:15:54;;;;;;;5.30;2.70;;;25.20;69.30;;;;;;4750593;30;20045;-79
2021/07/11 09:18:31;;;;;;;4.50;2.38;;;25.20;69.60;;;;;;4742176;30;20083;-80
2021/07/11 09:21:00;;;;;;;4.70;2.70;;;25.20;68.90;;;;;;4764684;30;20251;-79
2021/07/11 09:23:28;;;;;;;3.50;2.10;;;25.30;69.10;;;;;;4750699;30;20058;-79
2021/07/11 09:25:59;;;;;;;3.15;2.70;;;25.30;69.10;;;;;;4747634;30;20442;-79
2021/07/11 09:28:26;;;;;;;6.53;3.03;;;25.30;69.20;;;;;;4748776;30;20307;-79
2021/07/11 09:31:10;;;;;;;5.57;2.67;;;25.20;69.00;;;;;;4751915;30;20100;-79
2021/07/11 09:33:40;;;;;;;3.00;2.40;;;25.20;69.60;;;;;;4763859;30;20456;-79
2021/07/11 09:36:18;;;;;;;6.03;2.85;;;25.10;70.20;;;;;;4747391;30;20037;-79
2021/07/11 09:38:52;;;;;;;3.20;2.20;;;25.20;70.10;;;;;;4758549;30;20036;-79
2021/07/11 09:41:24;;;;;;;6.78;3.30;;;25.20;70.20;;;;;;4755210;30;20044;-79
2021/07/11 09:43:52;;;;;;;3.22;2.22;;;25.30;69.60;;;;;;4741742;30;20106;-79
2021/07/11 09:46:18;;;;;;;5.57;3.28;;;25.40;69.80;;;;;;4729719;30;20072;-80
2021/07/11 09:48:44;;;;;;;8.70;2.78;;;25.50;70.10;;;;;;4744105;30;20040;-79
2021/07/11 09:51:17;;;;;;;4.87;2.80;;;25.60;69.50;;;;;;4734809;30;20289;-78
2021/07/11 09:53:44;;;;;;;3.95;2.05;;;25.70;69.40;;;;;;4726432;30;20047;-79
2021/07/11 09:56:35;;;;;;;3.53;2.08;;;25.70;69.00;;;;;;4742826;30;20140;-76
2021/07/11 09:59:03;;;;;;;2.58;2.17;;;25.90;68.70;;;;;;4749621;30;20037;-76
2021/07/11 10:01:29;;;;;;;2.90;2.25;;;25.90;67.60;;;;;;4736849;30;20060;-79
2021/07/11 10:03:56;;;;;;;;;;;26.20;66.40;;;;;;4727582;30;20044;-78
2021/07/11 10:06:21;;;;;;;9.90;2.38;;;26.20;67.10;;;;;;4740329;30;20002;-79
2021/07/11 10:08:48;;;;;;;4.05;2.15;;;26.30;67.00;;;;;;4742455;30;20241;-79
2021/07/11 10:11:13;;;;;;;6.30;2.20;;;26.50;66.50;;;;;;4730946;30;20037;-80
2021/07/11 10:13:39;;;;;;;3.78;2.33;;;26.60;65.00;;;;;;4749325;30;20052;-79
2021/07/11 10:16:10;;;;;;;4.53;3.20;;;26.70;65.40;;;;;;4736133;30;20223;-79
2021/07/11 10:18:38;;;;;;;8.13;2.97;;;26.70;64.70;;;;;;4744505;30;20045;-79
2021/07/11 10:21:04;;;;;;;6.65;2.20;;;26.80;64.40;;;;;;4747588;30;20052;-79
2021/07/11 10:23:38;;;;;;;4.43;2.33;;;26.80;63.80;;;;;;4732302;30;20045;-79
2021/07/11 10:26:06;;;;;;;2.60;2.35;;;26.90;64.40;;;;;;4748362;30;20029;-78
2021/07/11 10:28:37;;;;;;;10.02;2.13;;;27.00;63.80;;;;;;4735121;30;20041;-79
2021/07/11 10:31:05;;;;;;;6.60;2.17;;;27.20;62.50;;;;;;4734845;30;20059;-78
2021/07/11 10:33:42;;;;;;;4.50;2.08;;;27.20;62.80;;;;;;4734116;30;20048;-78
2021/07/11 10:36:08;;;;;;;4.40;2.08;;;27.40;61.90;;;;;;4726620;30;20052;-79
2021/07/11 10:38:55;;;;;;;5.17;2.73;;;27.50;61.90;;;;;;4731103;30;20059;-78
2021/07/11 10:41:27;;;;;;;4.82;2.53;;;27.50;61.80;;;;;;4722825;30;20093;-78
2021/07/11 10:44:09;;;;;;;6.10;2.45;;;27.30;61.20;;;;;;4732007;30;20035;-78
2021/07/11 10:46:40;;;;;;;2.25;2.03;;;27.20;62.10;;;;;;4736462;30;20416;-79
2021/07/11 10:49:15;;;;;;;2.75;2.45;;;27.10;62.50;;;;;;4748692;30;20071;-78
2021/07/11 10:51:45;;;;;;;4.32;2.15;;;27.00;63.70;;;;;;4743149;30;20040;-78
2021/07/11 10:54:26;;;;;;;3.05;2.08;;;26.80;64.50;;;;;;4726309;30;20056;-77
2021/07/11 10:56:54;;;;;;;2.92;2.17;;;26.60;65.40;;;;;;4730033;30;20241;-77
2021/07/11 10:59:34;;;;;;;3.03;2.10;;;26.60;66.00;;;;;;4730914;30;20037;-77
2021/07/11 11:02:17;;;;;;;2.88;2.25;;;26.60;66.40;;;;;;4736310;30;20029;-77
2021/07/11 11:05:16;;;;;;;2.67;2.20;;;26.60;66.60;;;;;;4757783;30;20107;-78
2021/07/11 11:07:48;;;;;;;3.55;2.20;;;26.30;65.70;;;;;;4742962;30;20040;-77
2021/07/11 11:10:33;;;;;;;3.08;1.73;;;26.20;65.60;;;;;;4740168;30;20068;-77
2021/07/11 11:13:21;;;;;;;3.40;2.03;;;26.10;66.20;;;;;;4737044;30;20068;-77
2021/07/11 11:15:51;;;;;;;3.45;2.90;;;26.10;67.30;;;;;;4745521;30;20032;-77
2021/07/11 11:18:21;;;;;;;5.53;2.90;;;26.20;66.60;;;;;;4729980;30;20393;-77
2021/07/11 11:21:01;;;;;;;2.35;2.08;;;26.30;65.70;;;;;;4742456;30;20426;-77
2021/07/11 11:23:41;;;;;;;3.95;2.47;;;26.30;65.50;;;;;;4754353;30;20048;-77
2021/07/11 11:26:10;;;;;;;4.22;2.50;;;26.40;64.60;;;;;;4744664;30;20112;-78
2021/07/11 11:28:38;;;;;;;4.78;2.72;;;26.30;64.60;;;;;;4733041;30;20061;-77
2021/07/11 11:31:11;;;;;;;6.13;2.85;;;26.30;65.30;;;;;;4734828;30;20050;-78
2021/07/11 11:33:57;;;;;;;4.38;2.00;;;26.30;66.00;;;;;;4728473;30;20041;-78
2021/07/11 11:36:35;;;;;;;2.83;2.33;;;26.00;66.90;;;;;;4727135;30;20045;-77
2021/07/11 11:39:08;;;;;;;2.90;2.25;;;26.00;67.90;;;;;;4729223;30;20309;-77
2021/07/11 11:41:35;;;;;;;2.85;2.13;;;25.70;66.80;;;;;;4729671;30;20039;-78
2021/07/11 11:44:05;;;;;;;5.22;2.10;;;25.50;68.50;;;;;;4747376;30;20087;-78
2021/07/11 11:46:31;;;;;;;6.72;2.33;;;25.40;69.50;;;;;;4742456;30;20049;-78
2021/07/11 11:48:59;;;;;;;5.97;2.97;;;25.40;70.40;;;;;;4750049;30;20096;-78
2021/07/11 11:51:26;;;;;;;3.58;2.25;;;25.50;70.20;;;;;;4720449;30;20033;-79
2021/07/11 11:53:52;;;;;;;4.43;2.80;;;25.40;69.20;;;;;;4736557;30;20107;-79
2021/07/11 11:56:18;;;;;;;4.27;2.23;;;25.30;69.50;;;;;;4745118;30;20262;-79
2021/07/11 11:58:44;;;;;;;5.68;2.55;;;25.20;70.00;;;;;;4747061;30;20092;-79
2021/07/11 12:01:13;;;;;;;4.40;2.80;;;25.00;71.10;;;;;;4721254;30;20052;-79
2021/07/11 12:03:42;;;;;;;5.85;2.40;;;25.00;71.40;;;;;;4729830;30;20029;-79
2021/07/11 12:06:11;;;;;;;4.03;2.50;;;24.80;72.00;;;;;;4741830;30;20036;-79
2021/07/11 12:08:39;;;;;;;7.20;2.50;;;24.60;72.60;;;;;;4756001;30;20351;-78
2021/07/11 12:11:06;;;;;;;4.03;3.30;;;24.30;73.30;;;;;;4748937;30;20056;-78
2021/07/11 12:13:32;;;;;;;5.20;3.63;;;23.90;75.00;;;;;;4747062;30;20283;-78
2021/07/11 12:16:09;;;;;;;5.45;2.78;;;23.80;77.00;;;;;;4734089;30;20051;-78
2021/07/11 12:18:41;;;;;;;3.60;2.50;;;23.60;77.70;;;;;;4731761;30;20068;-78
2021/07/11 12:21:07;;;;;;;11.55;2.90;;;23.60;78.40;;;;;;4714458;30;20044;-79
2021/07/11 12:23:33;;;;;;;3.92;2.78;;;23.70;80.20;;;;;;4734626;30;20052;-79
2021/07/11 12:26:01;;;;;;;4.75;3.47;;;23.70;80.00;;;;;;4741715;30;20029;-78
2021/07/11 12:28:27;;;;;;;6.07;4.35;;;23.80;79.80;;;;;;4733117;30;20037;-78
2021/07/11 12:30:56;;;;;;;7.60;3.60;;;23.80;80.50;;;;;;4732824;30;20219;-81
2021/07/11 12:33:33;;;;;;;4.05;2.80;;;23.90;79.60;;;;;;4714321;30;20087;-80
2021/07/11 12:36:03;;;;;;;6.32;3.03;;;24.20;79.70;;;;;;4716593;30;20091;-79
2021/07/11 12:38:30;;;;;;;3.38;2.67;;;24.40;79.60;;;;;;4735821;30;20329;-79
2021/07/11 12:40:58;;;;;;;4.13;2.70;;;24.60;78.60;;;;;;4728608;30;20048;-79
2021/07/11 12:43:34;;;;;;;2.92;2.25;;;24.70;76.10;;;;;;4727789;30;20033;-78
2021/07/11 12:46:11;;;;;;;4.88;2.60;;;25.00;76.80;;;;;;4742622;30;20297;-80
2021/07/11 12:48:47;;;;;;;2.97;2.42;;;25.50;75.60;;;;;;4716050;30;20036;-81
2021/07/11 12:51:21;;;;;;;4.53;2.13;;;25.80;72.00;;;;;;4726930;30;20036;-82
2021/07/11 12:53:53;;;;;;;3.25;2.53;;;26.20;71.70;;;;;;4728733;30;20112;-81
2021/07/11 12:56:27;;;;;;;4.10;2.28;;;26.90;71.90;;;;;;4728474;30;20124;-81
2021/07/11 12:58:53;;;;;;;3.20;2.15;;;27.60;69.40;;;;;;4743285;30;20033;-81
2021/07/11 13:01:25;;;;;;;5.97;2.33;;;28.30;65.60;;;;;;4743097;30;20150;-81
2021/07/11 13:04:01;;;;;;;6.72;2.72;;;28.70;64.20;;;;;;4743120;30;20037;-79
2021/07/11 13:06:33;;;;;;;3.90;2.95;;;28.90;61.60;;;;;;4737598;30;20025;-79
2021/07/11 13:08:59;;;;;;;4.13;2.15;;;29.00;60.90;;;;;;4725626;30;20057;-81
2021/07/11 13:11:25;;;;;;;4.17;2.10;;;28.80;57.70;;;;;;4728707;30;20025;-77
2021/07/11 13:13:51;;;;;;;3.80;2.60;;;29.10;61.30;;;;;;4725276;30;20596;-76
2021/07/11 13:16:17;;;;;;;3.72;2.50;;;29.10;59.70;;;;;;4727622;30;20051;-77
2021/07/11 13:18:42;;;;;;;4.03;2.57;;;29.20;59.20;;;;;;4739891;30;20028;-77
2021/07/11 13:21:08;;;;;;;5.35;2.60;;;29.10;58.10;;;;;;4726148;30;20347;-77
2021/07/11 13:23:34;;;;;;;3.25;2.38;;;29.20;58.00;;;;;;4723716;30;20115;-77
2021/07/11 13:26:00;;;;;;;2.90;2.60;;;29.20;57.10;;;;;;4734707;30;20041;-76
2021/07/11 13:28:28;;;;;;;2.43;2.23;;;29.20;56.80;;;;;;4726009;30;20025;-81
2021/07/11 13:30:54;;;;;;;3.30;2.72;;;29.00;57.30;;;;;;4727769;30;20051;-80
2021/07/11 13:33:20;;;;;;;3.22;2.92;;;29.00;58.10;;;;;;4728031;30;20037;-78
2021/07/11 13:35:48;;;;;;;3.13;2.63;;;29.20;58.50;;;;;;4728787;30;20300;-80
2021/07/11 13:38:15;;;;;;;5.75;2.70;;;29.40;57.20;;;;;;4712593;30;20333;-77
2021/07/11 13:40:41;;;;;;;2.95;2.35;;;29.40;56.40;;;;;;4728122;30;20188;-78
2021/07/11 13:43:07;;;;;;;;;;;29.40;56.10;;;;;;4724742;30;20333;-78
2021/07/11 13:45:33;;;;;;;8.27;2.67;;;29.50;55.90;;;;;;4727115;30;19918;-78
2021/07/11 13:48:00;;;;;;;3.70;2.85;;;29.70;57.10;;;;;;4755547;30;20036;-76
2021/07/11 13:50:26;;;;;;;5.30;2.85;;;30.00;55.30;;;;;;4749495;30;20046;-76
2021/07/11 13:52:53;;;;;;;5.40;2.60;;;30.20;53.50;;;;;;4750353;30;20582;-78
2021/07/11 13:55:19;;;;;;;6.30;2.50;;;30.10;53.60;;;;;;4769704;30;20044;-77
2021/07/11 13:57:49;;;;;;;2.47;2.28;;;30.20;54.60;;;;;;4746693;30;20043;-78
2021/07/11 14:00:17;;;;;;;2.75;2.20;;;30.20;55.30;;;;;;4761811;30;20079;-79
2021/07/11 14:02:43;;;;;;;5.18;2.92;;;30.40;54.60;;;;;;4762133;30;20078;-77
2021/07/11 14:05:09;;;;;;;4.03;3.00;;;30.30;53.60;;;;;;4741745;30;20464;-77
2021/07/11 14:07:35;;;;;;;2.92;2.40;;;30.40;52.40;;;;;;4768382;30;20034;-77
2021/07/11 14:10:01;;;;;;;4.47;2.53;;;30.40;51.00;;;;;;4766046;30;20740;-78
2021/07/11 14:12:27;;;;;;;6.90;2.47;;;30.60;53.40;;;;;;4747936;30;20389;-78
2021/07/11 14:14:53;;;;;;;2.57;2.37;;;30.80;51.70;;;;;;4749334;30;20039;-78
2021/07/11 14:17:18;;;;;;;7.50;2.30;;;30.70;51.40;;;;;;4751494;30;20032;-77
2021/07/11 14:19:44;;;;;;;4.10;2.20;;;30.80;52.20;;;;;;4766369;30;20044;-77
2021/07/11 14:22:13;;;;;;;2.77;2.33;;;30.70;50.50;;;;;;4752797;30;20063;-77
2021/07/11 14:24:39;;;;;;;2.30;2.00;;;30.60;52.00;;;;;;4732042;30;20339;-77
2021/07/11 14:27:04;;;;;;;9.40;3.03;;;30.60;52.70;;;;;;4747195;30;20113;-77
2021/07/11 14:29:30;;;;;;;2.83;2.30;;;30.70;52.30;;;;;;4755653;30;20223;-77
2021/07/11 14:31:56;;;;;;;3.17;2.17;;;31.00;51.40;;;;;;4750809;30;20035;-76
2021/07/11 14:34:22;;;;;;;5.67;2.33;;;31.30;50.40;;;;;;4774424;30;20032;-77
2021/07/11 14:36:48;;;;;;;2.70;1.90;;;31.50;50.30;;;;;;4783007;30;20038;-76
2021/07/11 14:39:13;;;;;;;2.17;1.83;;;31.50;48.20;;;;;;4760657;30;20052;-75
2021/07/11 14:41:39;;;;;;;2.50;2.30;;;31.30;48.80;;;;;;4734165;30;20020;-75
2021/07/11 14:44:05;;;;;;;5.30;2.20;;;30.90;49.10;;;;;;4766970;30;20032;-77
2021/07/11 14:46:31;;;;;;;2.50;2.10;;;30.40;49.40;;;;;;4755161;30;20051;-78
2021/07/11 14:48:57;;;;;;;1.80;1.70;;;30.20;51.50;;;;;;4763968;30;20111;-78
2021/07/11 14:51:23;;;;;;;4.20;2.30;;;30.20;50.80;;;;;;4752887;30;20243;-77
2021/07/11 14:53:49;;;;;;;4.17;1.80;;;29.90;50.40;;;;;;4757769;30;20067;-78
2021/07/11 14:56:14;;;;;;;2.23;1.73;;;29.90;50.90;;;;;;4740637;30;20051;-78
2021/07/11 14:58:40;;;;;;;3.60;2.40;;;30.20;51.90;;;;;;4733723;30;20591;-76
2021/07/11 15:01:06;;;;;;;2.87;2.27;;;30.40;51.40;;;;;;4742850;30;20037;-77
2021/07/11 15:03:32;;;;;;;3.43;1.80;;;30.30;50.60;;;;;;4774301;30;20032;-77
2021/07/11 15:05:57;;;;;;;4.10;2.30;;;30.20;50.40;;;;;;4765698;30;20311;-76
2021/07/11 15:08:25;;;;;;;4.50;2.20;;;30.30;50.50;;;;;;4772636;30;20036;-76
2021/07/11 15:10:52;;;;;;;2.10;1.90;;;30.30;50.70;;;;;;4751926;30;20023;-76
2021/07/11 15:13:18;;;;;;;;;;;30.30;51.30;;;;;;4754144;30;20052;-77
2021/07/11 15:15:43;;;;;;;2.67;2.17;;;30.20;50.60;;;;;;4774016;30;19913;-78
2021/07/11 15:18:09;;;;;;;4.00;2.20;;;30.10;51.20;;;;;;4762987;30;20347;-76
2021/07/11 15:20:37;;;;;;;3.00;2.40;;;30.20;50.60;;;;;;4774032;30;20032;-76
2021/07/11 15:23:04;;;;;;;2.15;1.95;;;30.10;50.60;;;;;;4768144;30;20111;-77
2021/07/11 15:25:30;;;;;;;2.53;1.90;;;29.90;50.20;;;;;;4763153;30;20099;-76
2021/07/11 15:27:56;;;;;;;2.80;2.00;;;29.90;51.10;;;;;;4754618;30;20316;-76
2021/07/11 15:30:22;;;;;;;2.50;2.10;;;29.90;50.80;;;;;;4773029;30;20091;-76
2021/07/11 15:32:49;;;;;;;2.90;2.30;;;29.90;50.30;;;;;;4769491;30;20350;-76
2021/07/11 15:35:16;;;;;;;3.05;2.35;;;30.00;50.10;;;;;;4770678;30;20032;-76
2021/07/11 15:37:43;;;;;;;2.67;2.13;;;29.70;50.00;;;;;;4770315;30;20128;-77